Time;durP1;ratioP1;P1;durP2;ratioP2;P2;SDS_P1;SDS_P2;PMS_P1;PMS_P2;Temp;Humidity;BMP_temperature;BMP_pressure;BME280_temperature;BME280_humidity;BME280_pressure;Samples;Min_cycle;Max_cycle;Signal;HPM_P1;HPM_P2
2022/10/24 00:01:08;;;;;;;8.77;3.10;;;19.70;97.30;;;;;;5093625;28;20450;-88
2022/10/24 00:03:34;;;;;;;5.67;1.63;;;19.60;97.60;;;;;;5098458;28;20415;-89
2022/10/24 00:06:01;;;;;;;4.40;1.87;;;19.70;97.40;;;;;;5093853;28;20535;-90
2022/10/24 00:08:28;;;;;;;3.70;1.70;;;19.60;97.80;;;;;;5081204;28;20470;-90
2022/10/24 00:10:55;;;;;;;4.57;1.70;;;19.50;97.60;;;;;;5077210;28;20450;-89
2022/10/24 00:13:22;;;;;;;4.73;1.77;;;19.50;97.90;;;;;;5076368;28;20451;-90
2022/10/24 00:15:50;;;;;;;5.60;1.50;;;19.50;98.00;;;;;;5305139;22;20858;-90
2022/10/24 00:18:18;;;;;;;4.47;1.70;;;19.40;98.10;;;;;;5067042;28;20433;-90
2022/10/24 00:20:45;;;;;;;5.33;1.70;;;19.40;97.90;;;;;;5057658;28;21009;-90
2022/10/24 00:23:12;;;;;;;7.57;1.90;;;19.30;97.90;;;;;;5056861;28;20456;-88
2022/10/24 00:25:39;;;;;;;9.13;2.30;;;19.20;98.20;;;;;;5059052;28;20465;-90
2022/10/24 00:28:06;;;;;;;5.10;1.77;;;19.30;98.20;;;;;;5055501;28;20468;-90
2022/10/24 00:30:33;;;;;;;4.77;2.43;;;19.20;98.30;;;;;;5055928;28;20448;-90
2022/10/24 00:32:59;;;;;;;4.67;2.07;;;19.10;98.40;;;;;;5056063;28;20453;-90
2022/10/24 00:35:28;;;;;;;4.90;1.83;;;19.10;98.50;;;;;;5056924;28;20489;-90
2022/10/24 00:37:54;;;;;;;5.20;1.87;;;19.10;98.70;;;;;;5057115;28;20437;-90
2022/10/24 00:40:21;;;;;;;11.33;3.70;;;19.20;98.80;;;;;;5057345;28;20459;-88
2022/10/24 00:42:49;;;;;;;4.23;2.40;;;19.10;98.80;;;;;;5067641;28;20536;-88
2022/10/24 00:45:45;;;;;;;4.83;2.00;;;19.10;98.90;;;;;;5055953;28;20471;-88
2022/10/24 00:48:20;;;;;;;4.07;2.00;;;19.00;98.80;;;;;;5010403;28;20457;-89
2022/10/24 00:50:52;;;;;;;7.17;2.40;;;18.90;98.90;;;;;;5056384;28;20979;-89
2022/10/24 00:53:20;;;;;;;5.70;2.50;;;18.80;99.30;;;;;;5056332;28;20835;-88
2022/10/24 00:55:49;;;;;;;5.07;1.77;;;18.70;99.50;;;;;;5055515;28;20496;-89
2022/10/24 00:58:17;;;;;;;4.50;2.43;;;18.70;99.80;;;;;;5061258;28;20973;-89
2022/10/24 01:00:44;;;;;;;4.60;1.67;;;18.60;99.90;;;;;;5054390;28;20832;-90
2022/10/24 01:03:12;;;;;;;5.80;2.20;;;18.50;99.90;;;;;;5055513;28;20949;-90
2022/10/24 01:05:55;;;;;;;3.20;1.80;;;18.50;99.90;;;;;;5069802;28;20445;-90
2022/10/24 01:08:31;;;;;;;4.77;2.37;;;18.40;99.90;;;;;;5068380;28;20433;-90
2022/10/24 01:11:06;;;;;;;9.13;2.20;;;18.30;99.90;;;;;;5064511;28;20463;-90
2022/10/24 01:13:40;;;;;;;4.40;1.77;;;18.30;99.90;;;;;;5066767;28;20431;-90
2022/10/24 01:16:13;;;;;;;4.00;2.43;;;18.50;99.90;;;;;;5075018;28;20495;-90
2022/10/24 01:18:44;;;;;;;4.50;1.80;;;18.60;99.90;;;;;;5070598;28;20421;-91
2022/10/24 01:21:23;;;;;;;8.40;2.60;;;18.60;99.90;;;;;;5059004;28;20449;-89
2022/10/24 01:24:13;;;;;;;6.57;2.10;;;18.70;99.90;;;;;;5067027;28;20440;-90
2022/10/24 01:27:07;;;;;;;5.10;1.63;;;18.70;99.90;;;;;;5079206;28;20441;-92
2022/10/24 01:30:00;;;;;;;5.60;2.20;;;18.70;99.90;;;;;;5075813;28;20429;-91
2022/10/24 01:32:34;;;;;;;4.80;2.23;;;18.80;99.90;;;;;;5053059;28;20461;-91
2022/10/24 01:35:07;;;;;;;6.37;2.97;;;18.80;99.80;;;;;;5056332;28;20460;-88
2022/10/24 01:37:39;;;;;;;10.23;4.40;;;18.70;99.90;;;;;;5055513;28;20540;-88
2022/10/24 01:40:12;;;;;;;9.53;3.47;;;18.70;99.90;;;;;;5060162;28;20445;-88
2022/10/24 01:42:41;;;;;;;8.83;4.70;;;18.60;99.90;;;;;;5071772;28;20451;-89
2022/10/24 01:45:12;;;;;;;10.17;5.23;;;18.40;99.90;;;;;;5066455;28;20467;-88
2022/10/24 01:47:43;;;;;;;6.50;3.57;;;18.40;99.90;;;;;;5069919;28;20459;-89
2022/10/24 01:50:14;;;;;;;11.00;3.97;;;18.30;99.90;;;;;;5065185;28;20422;-88
2022/10/24 01:52:44;;;;;;;10.73;3.73;;;18.20;99.90;;;;;;5058363;28;20453;-90
2022/10/24 01:55:11;;;;;;;6.70;3.80;;;18.20;99.90;;;;;;5055193;28;20845;-88
2022/10/24 01:57:38;;;;;;;7.80;2.60;;;18.20;99.90;;;;;;5055777;28;20452;-89
2022/10/24 02:00:07;;;;;;;8.37;3.57;;;18.20;99.90;;;;;;5054458;28;20498;-90
2022/10/24 02:02:39;;;;;;;7.27;2.93;;;18.30;99.90;;;;;;5053981;28;20449;-89
2022/10/24 02:05:11;;;;;;;8.33;3.33;;;18.20;99.90;;;;;;5055809;28;20445;-89
2022/10/24 02:07:41;;;;;;;7.93;2.63;;;18.20;99.90;;;;;;5053252;28;20462;-90
2022/10/24 02:10:11;;;;;;;7.53;3.00;;;18.10;99.90;;;;;;5053139;28;20448;-90
2022/10/24 02:12:41;;;;;;;6.77;2.90;;;18.10;99.90;;;;;;5053953;28;20457;-89
2022/10/24 02:15:13;;;;;;;6.93;3.13;;;18.20;99.90;;;;;;5053606;28;20472;-89
2022/10/24 02:17:41;;;;;;;12.20;3.60;;;18.10;99.90;;;;;;5056872;28;20432;-89
2022/10/24 02:20:10;;;;;;;10.20;3.33;;;18.20;99.90;;;;;;5059372;28;20948;-89
2022/10/24 02:22:45;;;;;;;9.97;3.30;;;18.20;99.90;;;;;;5060748;28;20432;-90
2022/10/24 02:25:17;;;;;;;8.77;2.83;;;18.30;99.90;;;;;;5076456;28;20492;-90
2022/10/24 02:27:49;;;;;;;5.17;2.50;;;18.30;99.90;;;;;;5073380;28;20929;-89
2022/10/24 02:30:18;;;;;;;7.67;2.43;;;18.30;99.90;;;;;;5062559;28;20452;-89
2022/10/24 02:32:50;;;;;;;6.90;3.00;;;18.30;99.90;;;;;;5072420;28;20510;-90
2022/10/24 02:35:20;;;;;;;8.13;3.40;;;18.40;99.90;;;;;;5059769;28;20454;-89
2022/10/24 02:37:50;;;;;;;6.73;3.77;;;18.30;99.90;;;;;;5054404;28;20472;-89
2022/10/24 02:40:19;;;;;;;5.30;3.20;;;18.30;99.90;;;;;;5073859;28;20431;-89
2022/10/24 02:42:49;;;;;;;5.30;2.50;;;18.30;99.90;;;;;;5077549;28;20503;-91
2022/10/24 02:45:17;;;;;;;5.50;2.90;;;18.30;99.90;;;;;;5076743;28;20467;-90
2022/10/24 02:47:45;;;;;;;13.63;4.17;;;18.10;99.90;;;;;;5061879;28;20433;-89
2022/10/24 02:50:14;;;;;;;9.23;3.20;;;18.10;99.90;;;;;;5075901;28;20424;-88
2022/10/24 02:52:42;;;;;;;9.97;3.67;;;18.10;99.90;;;;;;5077583;28;20437;-90
2022/10/24 02:55:10;;;;;;;7.73;2.90;;;18.00;99.90;;;;;;5068388;28;20469;-89
2022/10/24 02:57:37;;;;;;;7.33;3.57;;;18.00;99.90;;;;;;5061898;28;20469;-89
2022/10/24 03:00:05;;;;;;;9.83;4.33;;;18.00;99.90;;;;;;5073341;28;20455;-89
2022/10/24 03:02:33;;;;;;;8.33;2.90;;;18.00;99.90;;;;;;5064756;28;20431;-89
2022/10/24 03:05:00;;;;;;;8.10;3.20;;;17.90;99.90;;;;;;5072409;28;20566;-89
2022/10/24 03:07:28;;;;;;;5.40;2.83;;;18.10;99.90;;;;;;5057074;28;20447;-89
2022/10/24 03:09:55;;;;;;;9.30;3.20;;;18.00;99.90;;;;;;5057808;28;20984;-89
2022/10/24 03:12:23;;;;;;;5.73;2.90;;;18.00;99.90;;;;;;5058247;28;20937;-89
2022/10/24 03:14:49;;;;;;;6.47;2.87;;;18.00;99.90;;;;;;5056780;28;20709;-88
2022/10/24 03:17:16;;;;;;;11.73;4.00;;;18.00;99.90;;;;;;5056879;28;20483;-89
2022/10/24 03:19:44;;;;;;;8.37;4.07;;;18.00;99.90;;;;;;5056430;28;20451;-89
2022/10/24 03:22:11;;;;;;;9.60;3.60;;;17.90;99.90;;;;;;5056788;28;20461;-89
2022/10/24 03:24:39;;;;;;;8.70;3.40;;;17.90;99.90;;;;;;5057409;28;21005;-89
2022/10/24 03:27:06;;;;;;;8.00;3.30;;;17.90;99.90;;;;;;5058216;28;20470;-89
2022/10/24 03:29:32;;;;;;;11.40;3.90;;;17.90;99.90;;;;;;5067425;28;20433;-89
2022/10/24 03:31:59;;;;;;;8.67;3.40;;;17.90;99.90;;;;;;5068399;28;20827;-90
2022/10/24 03:34:26;;;;;;;5.60;2.57;;;18.00;99.90;;;;;;5064881;28;20981;-89
2022/10/24 03:36:53;;;;;;;7.30;3.43;;;18.10;99.90;;;;;;5059448;28;20484;-89
2022/10/24 03:39:20;;;;;;;13.50;4.67;;;18.10;99.90;;;;;;5057052;28;20547;-89
2022/10/24 03:41:48;;;;;;;15.10;3.60;;;18.10;99.90;;;;;;5056902;28;20452;-88
2022/10/24 03:44:14;;;;;;;13.17;3.60;;;18.10;99.90;;;;;;5062018;28;20452;-89
2022/10/24 03:46:41;;;;;;;10.40;2.80;;;18.10;99.90;;;;;;5056624;28;20440;-90
2022/10/24 03:49:08;;;;;;;9.37;3.87;;;18.10;99.90;;;;;;5056395;28;20956;-89
2022/10/24 03:51:34;;;;;;;8.07;2.87;;;18.20;99.90;;;;;;5056290;28;20449;-90
2022/10/24 03:54:01;;;;;;;11.40;3.37;;;18.10;99.90;;;;;;5055821;28;20449;-89
2022/10/24 03:56:29;;;;;;;11.93;3.23;;;18.10;99.90;;;;;;5079250;22;21650;-87
2022/10/24 03:58:57;;;;;;;7.03;2.90;;;18.10;99.90;;;;;;5095341;28;20450;-86
2022/10/24 04:01:24;;;;;;;9.77;2.80;;;18.10;99.90;;;;;;5092658;28;20446;-86
2022/10/24 04:03:51;;;;;;;8.97;3.33;;;18.10;99.90;;;;;;5090574;28;20431;-88
2022/10/24 04:06:17;;;;;;;7.57;2.80;;;18.10;99.90;;;;;;5098116;28;20445;-87
2022/10/24 04:08:44;;;;;;;10.30;3.27;;;18.10;99.90;;;;;;5099382;28;20438;-86
2022/10/24 04:11:12;;;;;;;10.30;3.90;;;18.10;99.90;;;;;;5117594;28;20513;-86
2022/10/24 04:13:39;;;;;;;7.10;3.37;;;18.10;99.90;;;;;;5110091;28;20438;-88
2022/10/24 04:16:08;;;;;;;8.40;4.03;;;18.10;99.90;;;;;;5111110;28;20466;-88
2022/10/24 04:18:35;;;;;;;8.37;3.90;;;18.10;99.90;;;;;;5102514;28;20435;-86
2022/10/24 04:21:02;;;;;;;7.57;3.87;;;18.10;99.90;;;;;;5097591;28;20464;-88
2022/10/24 04:23:33;;;;;;;12.23;4.17;;;18.00;99.90;;;;;;5095311;28;20451;-87
2022/10/24 04:26:00;;;;;;;12.13;4.00;;;17.90;99.90;;;;;;5094290;28;20584;-87
2022/10/24 04:28:28;;;;;;;9.10;3.53;;;17.80;99.90;;;;;;5104102;28;20513;-88
2022/10/24 04:30:56;;;;;;;6.23;3.50;;;17.80;99.90;;;;;;5113584;28;20427;-87
2022/10/24 04:33:24;;;;;;;9.63;3.43;;;17.70;99.90;;;;;;5135435;28;20832;-87
2022/10/24 04:35:52;;;;;;;10.10;4.13;;;17.70;99.90;;;;;;5126212;28;20923;-86
2022/10/24 04:38:19;;;;;;;12.43;4.57;;;17.70;99.90;;;;;;5095610;28;20463;-87
2022/10/24 04:40:47;;;;;;;8.93;3.60;;;17.70;99.90;;;;;;5107503;28;20452;-87
2022/10/24 04:43:14;;;;;;;10.70;4.33;;;17.70;99.90;;;;;;5109710;28;20427;-86
2022/10/24 04:45:41;;;;;;;9.40;3.83;;;17.60;99.90;;;;;;5111769;28;20502;-86
2022/10/24 04:48:08;;;;;;;11.27;4.97;;;17.60;99.90;;;;;;5107457;28;20533;-85
2022/10/24 04:50:36;;;;;;;17.33;4.87;;;17.60;99.90;;;;;;5096494;28;20449;-86
2022/10/24 04:53:03;;;;;;;13.03;4.50;;;17.70;99.90;;;;;;5095416;28;20454;-86
2022/10/24 04:55:30;;;;;;;9.33;4.47;;;17.60;99.90;;;;;;5095708;28;20453;-86
2022/10/24 04:57:57;;;;;;;10.17;4.80;;;17.70;99.90;;;;;;5095275;28;20493;-88
2022/10/24 05:00:23;;;;;;;10.00;5.93;;;17.70;99.90;;;;;;5098061;28;20427;-86
2022/10/24 05:02:51;;;;;;;9.80;4.20;;;17.70;99.90;;;;;;5111760;28;20955;-87
2022/10/24 05:05:18;;;;;;;9.03;4.80;;;17.70;99.90;;;;;;5113875;28;20454;-89
2022/10/24 05:07:46;;;;;;;8.00;4.00;;;17.70;99.90;;;;;;5105173;28;20455;-87
2022/10/24 05:10:14;;;;;;;9.27;3.37;;;17.70;99.90;;;;;;5095854;28;20443;-85
2022/10/24 05:12:42;;;;;;;11.13;3.83;;;17.70;99.90;;;;;;5094582;28;20446;-86
2022/10/24 05:15:10;;;;;;;11.67;3.53;;;17.80;99.90;;;;;;5097795;28;20505;-86
2022/10/24 05:17:37;;;;;;;6.20;3.03;;;17.70;99.90;;;;;;5099267;28;20879;-87
2022/10/24 05:20:06;;;;;;;10.23;3.80;;;17.70;99.90;;;;;;5094923;28;20447;-87
2022/10/24 05:22:33;;;;;;;10.70;4.57;;;17.70;99.90;;;;;;5095839;28;20454;-88
2022/10/24 05:25:01;;;;;;;8.43;3.60;;;17.70;99.90;;;;;;5096130;28;20454;-88
2022/10/24 05:27:28;;;;;;;7.70;4.20;;;17.70;99.90;;;;;;5105261;28;20459;-87
2022/10/24 05:29:54;;;;;;;7.30;3.20;;;17.70;99.90;;;;;;5111916;28;20447;-87
2022/10/24 05:32:23;;;;;;;9.00;3.70;;;17.90;99.90;;;;;;5105557;28;20431;-88
2022/10/24 05:34:50;;;;;;;8.60;3.83;;;17.90;99.90;;;;;;5096096;28;20447;-87
2022/10/24 05:37:17;;;;;;;11.63;3.50;;;18.10;99.90;;;;;;5095440;28;20488;-87
2022/10/24 05:39:44;;;;;;;5.90;2.60;;;18.10;99.90;;;;;;5099586;28;20730;-88
2022/10/24 05:42:12;;;;;;;7.80;3.03;;;18.10;99.90;;;;;;5098455;28;20457;-86
2022/10/24 05:44:39;;;;;;;4.73;2.83;;;18.20;99.90;;;;;;5096535;28;20431;-86
2022/10/24 05:47:06;;;;;;;6.07;2.63;;;18.30;99.90;;;;;;5107806;28;20462;-87
2022/10/24 05:49:33;;;;;;;10.30;3.60;;;18.30;99.90;;;;;;5104269;28;20445;-87
2022/10/24 05:52:00;;;;;;;8.70;2.90;;;18.30;99.90;;;;;;5093623;28;20867;-86
2022/10/24 05:54:27;;;;;;;6.03;2.73;;;18.20;99.90;;;;;;5095064;28;20447;-86
2022/10/24 05:56:53;;;;;;;7.60;2.87;;;18.20;99.90;;;;;;5093289;28;20482;-86
2022/10/24 05:59:21;;;;;;;7.70;2.97;;;18.20;99.90;;;;;;5094127;28;20537;-87
2022/10/24 06:01:48;;;;;;;5.67;2.80;;;18.20;99.90;;;;;;5095451;28;20459;-87
2022/10/24 06:04:15;;;;;;;6.10;2.60;;;18.30;99.90;;;;;;5095325;28;20436;-86
2022/10/24 06:06:44;;;;;;;8.30;3.50;;;18.30;99.90;;;;;;5096681;28;20800;-86
2022/10/24 06:09:12;;;;;;;8.57;3.70;;;18.40;99.90;;;;;;5107328;28;20506;-87
2022/10/24 06:11:38;;;;;;;15.10;4.10;;;18.30;99.90;;;;;;5117097;28;20497;-88
2022/10/24 06:14:05;;;;;;;17.10;4.90;;;17.90;99.90;;;;;;5108362;28;20438;-88
2022/10/24 06:16:34;;;;;;;6.80;3.10;;;17.50;99.90;;;;;;5107099;28;20477;-88
2022/10/24 06:19:01;;;;;;;8.13;3.10;;;17.10;99.90;;;;;;5112781;28;20419;-89
2022/10/24 06:21:28;;;;;;;7.33;3.20;;;16.80;99.90;;;;;;5108573;28;20515;-88
2022/10/24 06:23:55;;;;;;;6.97;2.50;;;16.50;99.90;;;;;;5104589;28;20450;-88
2022/10/24 06:26:21;;;;;;;5.70;3.00;;;16.40;99.90;;;;;;5099245;28;20462;-88
2022/10/24 06:28:48;;;;;;;6.50;2.93;;;16.10;99.90;;;;;;5096332;28;20535;-87
2022/10/24 06:31:17;;;;;;;11.50;3.73;;;16.00;99.90;;;;;;5093865;28;20446;-87
2022/10/24 06:33:45;;;;;;;7.20;2.83;;;15.90;99.90;;;;;;5094415;28;20478;-89
2022/10/24 06:36:13;;;;;;;9.00;3.40;;;15.90;99.90;;;;;;5096447;28;20433;-89
2022/10/24 06:38:40;;;;;;;8.30;3.43;;;16.00;99.90;;;;;;5095633;28;20823;-89
2022/10/24 06:41:07;;;;;;;7.77;3.50;;;16.00;99.90;;;;;;5100230;28;20522;-89
2022/10/24 06:43:35;;;;;;;8.80;3.83;;;16.00;99.90;;;;;;5099974;28;20874;-88
2022/10/24 06:46:05;;;;;;;7.33;3.63;;;16.00;99.90;;;;;;5098047;28;20503;-88
2022/10/24 06:48:32;;;;;;;10.17;4.03;;;16.10;99.90;;;;;;5108071;28;20436;-88
2022/10/24 06:51:00;;;;;;;10.03;4.00;;;16.10;99.90;;;;;;5107854;28;20519;-89
2022/10/24 06:53:27;;;;;;;10.80;3.93;;;16.10;99.90;;;;;;5103272;28;20533;-79
2022/10/24 06:55:54;;;;;;;11.53;4.60;;;16.20;99.90;;;;;;5103173;28;20451;-80
2022/10/24 06:58:21;;;;;;;8.37;3.97;;;16.20;99.90;;;;;;5104680;28;20491;-81
2022/10/24 07:00:47;;;;;;;9.63;4.33;;;16.30;99.90;;;;;;5106889;28;20439;-79
2022/10/24 07:03:15;;;;;;;6.33;3.40;;;16.30;99.90;;;;;;5106492;28;20449;-82
2022/10/24 07:05:42;;;;;;;6.80;3.60;;;16.20;99.90;;;;;;5102016;28;20443;-80
2022/10/24 07:08:10;;;;;;;11.43;3.70;;;16.20;99.90;;;;;;5103319;28;20470;-82
2022/10/24 07:10:37;;;;;;;10.07;4.07;;;16.30;99.90;;;;;;5103912;28;20443;-82
2022/10/24 07:13:04;;;;;;;8.00;4.67;;;16.30;99.90;;;;;;5102888;28;20453;-80
2022/10/24 07:15:31;;;;;;;11.63;3.80;;;16.30;99.90;;;;;;5103031;28;20445;-81
2022/10/24 07:17:57;;;;;;;7.57;4.07;;;16.30;99.90;;;;;;5103121;28;20458;-88
2022/10/24 07:20:24;;;;;;;8.60;4.30;;;16.30;99.90;;;;;;5100390;28;20552;-89
2022/10/24 07:22:51;;;;;;;10.03;4.00;;;16.40;99.90;;;;;;5099171;28;20431;-89
2022/10/24 07:25:19;;;;;;;11.60;4.27;;;16.40;99.90;;;;;;5099377;28;20456;-90
2022/10/24 07:27:46;;;;;;;8.87;3.87;;;16.40;99.90;;;;;;5097301;28;20462;-90
2022/10/24 07:30:17;;;;;;;9.50;4.13;;;16.30;99.90;;;;;;5098071;28;20532;-89
2022/10/24 07:32:44;;;;;;;6.30;4.10;;;16.40;99.90;;;;;;5098550;28;21124;-89
2022/10/24 07:35:12;;;;;;;10.47;4.40;;;16.40;99.90;;;;;;5104341;28;20481;-89
2022/10/24 07:37:39;;;;;;;10.23;4.03;;;16.40;99.90;;;;;;5100746;28;20480;-90
2022/10/24 07:40:07;;;;;;;7.73;4.13;;;16.40;99.90;;;;;;5103191;28;20518;-89
2022/10/24 07:42:36;;;;;;;6.37;4.00;;;16.40;99.90;;;;;;5098925;28;21059;-89
2022/10/24 07:45:04;;;;;;;7.67;4.20;;;16.40;99.90;;;;;;5098271;28;20537;-90
2022/10/24 07:47:31;;;;;;;7.73;4.90;;;16.40;99.90;;;;;;5098061;28;20463;-89
2022/10/24 07:49:57;;;;;;;8.40;4.27;;;16.50;99.90;;;;;;5096930;28;20459;-89
2022/10/24 07:52:25;;;;;;;6.10;4.00;;;16.60;99.90;;;;;;5110653;28;20435;-92
2022/10/24 07:54:53;;;;;;;11.83;4.50;;;16.60;99.90;;;;;;5120095;28;20468;-89
2022/10/24 07:57:20;;;;;;;7.80;4.37;;;16.60;99.90;;;;;;5099603;28;20519;-89
2022/10/24 07:59:48;;;;;;;12.53;4.90;;;16.70;99.90;;;;;;5108127;28;20444;-90
2022/10/24 08:02:16;;;;;;;10.67;4.67;;;16.70;99.90;;;;;;5108713;28;20451;-88
2022/10/24 08:04:44;;;;;;;11.53;4.90;;;16.80;99.90;;;;;;5103011;28;20962;-88
2022/10/24 08:07:12;;;;;;;9.37;4.90;;;16.80;99.90;;;;;;5096880;28;20455;-89
2022/10/24 08:09:40;;;;;;;13.20;5.80;;;16.80;99.90;;;;;;5096396;28;21064;-88
2022/10/24 08:12:07;;;;;;;10.43;6.07;;;16.70;99.90;;;;;;5096187;28;20461;-88
2022/10/24 08:14:33;;;;;;;13.00;5.50;;;16.70;99.90;;;;;;5095878;28;20459;-88
2022/10/24 08:17:01;;;;;;;6.30;4.37;;;16.80;99.90;;;;;;5096078;28;20983;-88
2022/10/24 08:19:28;;;;;;;5.73;2.80;;;16.90;99.90;;;;;;5109689;28;20458;-89
2022/10/24 08:21:55;;;;;;;8.17;2.80;;;16.90;99.90;;;;;;5111083;28;20434;-87
2022/10/24 08:24:22;;;;;;;3.53;1.93;;;16.90;99.90;;;;;;5098545;28;20443;-87
2022/10/24 08:26:49;;;;;;;7.10;3.27;;;16.90;99.90;;;;;;5096632;28;21006;-88
2022/10/24 08:29:21;;;;;;;4.60;3.53;;;16.90;99.90;;;;;;5095884;28;20455;-88
2022/10/24 08:31:49;;;;;;;7.80;3.10;;;17.00;99.90;;;;;;5096389;28;20457;-89
2022/10/24 08:34:18;;;;;;;5.50;2.50;;;17.00;99.90;;;;;;5103715;28;20432;-88
2022/10/24 08:36:46;;;;;;;5.17;2.10;;;17.10;99.90;;;;;;5108751;28;20471;-88
2022/10/24 08:39:13;;;;;;;7.17;3.30;;;17.10;99.90;;;;;;5108737;28;20502;-88
2022/10/24 08:41:42;;;;;;;13.73;3.37;;;17.20;99.90;;;;;;5098497;28;20449;-88
2022/10/24 08:44:18;;;;;;;5.27;2.57;;;17.30;99.90;;;;;;5101316;28;20954;-88
2022/10/24 08:46:50;;;;;;;9.77;2.90;;;17.40;99.90;;;;;;5117542;28;20465;-89
2022/10/24 08:49:30;;;;;;;6.53;3.30;;;17.50;99.90;;;;;;5117198;28;20518;-89
2022/10/24 08:52:00;;;;;;;7.07;3.60;;;17.60;99.90;;;;;;5113926;28;20439;-87
2022/10/24 08:54:35;;;;;;;7.73;3.20;;;17.60;99.90;;;;;;5112985;28;20938;-89
2022/10/24 08:57:03;;;;;;;7.97;3.30;;;17.60;99.90;;;;;;5096680;28;20576;-89
2022/10/24 08:59:33;;;;;;;8.23;3.47;;;17.60;99.90;;;;;;5103609;28;20493;-88
2022/10/24 09:02:03;;;;;;;8.13;3.20;;;17.70;99.90;;;;;;5110196;28;20415;-89
2022/10/24 09:04:44;;;;;;;8.73;3.33;;;17.60;99.90;;;;;;5117749;28;20435;-90
2022/10/24 09:07:16;;;;;;;7.13;4.13;;;17.60;99.90;;;;;;5118761;28;20449;-89
2022/10/24 09:10:15;;;;;;;10.70;4.03;;;17.70;99.90;;;;;;5118903;28;20437;-90
2022/10/24 09:12:42;;;;;;;7.37;3.20;;;17.60;99.90;;;;;;5118486;28;20518;-89
2022/10/24 09:15:16;;;;;;;7.63;3.10;;;17.60;99.90;;;;;;5118962;28;20461;-90
2022/10/24 09:17:43;;;;;;;8.10;3.10;;;17.60;99.90;;;;;;5115436;28;20506;-92
2022/10/24 09:20:24;;;;;;;5.83;2.70;;;17.50;99.90;;;;;;5096355;28;20435;-90
2022/10/24 09:22:51;;;;;;;6.17;2.50;;;17.60;99.90;;;;;;5104379;28;20450;-89
2022/10/24 09:25:21;;;;;;;5.70;2.27;;;17.60;99.90;;;;;;5098065;28;20435;-89
2022/10/24 09:27:50;;;;;;;10.57;3.03;;;17.60;99.90;;;;;;5098701;28;20461;-88
2022/10/24 09:30:20;;;;;;;4.40;2.83;;;17.50;99.90;;;;;;5076238;28;20451;-88
2022/10/24 09:32:47;;;;;;;7.17;3.20;;;17.50;99.90;;;;;;5088012;28;20430;-88
2022/10/24 09:35:20;;;;;;;5.83;2.67;;;17.60;99.90;;;;;;5096002;28;20451;-88
2022/10/24 09:37:49;;;;;;;10.23;3.93;;;17.70;99.90;;;;;;5096826;28;20493;-88
2022/10/24 09:40:22;;;;;;;11.93;4.23;;;17.60;99.90;;;;;;5104319;28;20458;-88
2022/10/24 09:42:56;;;;;;;10.77;3.67;;;17.60;99.90;;;;;;5099102;28;20518;-88
2022/10/24 09:45:40;;;;;;;9.53;5.77;;;17.60;99.90;;;;;;5098118;28;20438;-89
2022/10/24 09:48:19;;;;;;;6.13;4.10;;;17.50;99.90;;;;;;5097532;28;20546;-88
2022/10/24 09:50:49;;;;;;;8.93;4.70;;;17.50;99.90;;;;;;5096082;28;20456;-88
2022/10/24 09:53:24;;;;;;;13.27;3.90;;;17.40;99.90;;;;;;5094968;28;20435;-88
2022/10/24 09:55:53;;;;;;;9.20;3.50;;;17.30;99.90;;;;;;5094528;28;20438;-89
2022/10/24 09:58:28;;;;;;;7.97;3.40;;;17.30;99.90;;;;;;5094783;28;20487;-88
2022/10/24 10:01:02;;;;;;;10.57;4.00;;;17.40;99.90;;;;;;5094785;28;20435;-88
2022/10/24 10:03:29;;;;;;;8.77;4.00;;;17.40;99.90;;;;;;5095016;28;20447;-88
2022/10/24 10:06:00;;;;;;;10.77;3.37;;;17.40;99.90;;;;;;5094823;28;20423;-89
2022/10/24 10:08:29;;;;;;;7.63;3.80;;;17.50;99.90;;;;;;5094909;28;20438;-88
2022/10/24 10:11:03;;;;;;;8.33;3.77;;;17.50;99.90;;;;;;5095451;28;20457;-87
2022/10/24 10:13:36;;;;;;;6.37;3.50;;;17.60;99.90;;;;;;5095840;28;20453;-88
2022/10/24 10:16:04;;;;;;;12.00;4.97;;;17.70;99.90;;;;;;5095163;28;20456;-89
2022/10/24 10:18:34;;;;;;;9.60;4.77;;;17.70;99.90;;;;;;5093494;28;20475;-89
2022/10/24 10:21:06;;;;;;;7.60;4.50;;;17.80;99.90;;;;;;5094368;28;20447;-89
2022/10/24 10:23:36;;;;;;;8.33;5.40;;;17.80;99.90;;;;;;5097853;28;20443;-88
2022/10/24 10:26:23;;;;;;;9.13;4.20;;;18.00;99.90;;;;;;5114015;28;20439;-90
2022/10/24 10:28:56;;;;;;;6.30;4.00;;;18.20;99.90;;;;;;5098487;28;20506;-89
2022/10/24 10:31:26;;;;;;;9.67;3.97;;;18.40;99.90;;;;;;5106368;28;20974;-89
2022/10/24 10:34:15;;;;;;;7.03;3.93;;;18.40;99.90;;;;;;5111784;28;20411;-90
2022/10/24 10:37:10;;;;;;;6.00;2.90;;;18.60;99.90;;;;;;5097205;28;20455;-89
2022/10/24 10:39:56;;;;;;;5.97;2.87;;;18.70;99.90;;;;;;5094907;28;20475;-89
2022/10/24 10:42:34;;;;;;;5.50;2.70;;;18.60;99.90;;;;;;5095096;28;20457;-90
2022/10/24 10:45:12;;;;;;;9.60;3.97;;;18.60;99.90;;;;;;5094394;28;20454;-90
2022/10/24 10:47:50;;;;;;;6.43;2.00;;;18.60;99.90;;;;;;5094656;28;20451;-88
2022/10/24 10:50:27;;;;;;;4.40;2.40;;;18.50;99.90;;;;;;5094711;28;20450;-90
2022/10/24 10:53:04;;;;;;;5.70;2.20;;;18.50;99.90;;;;;;5094888;28;20441;-89
2022/10/24 10:55:39;;;;;;;4.43;1.73;;;18.50;99.90;;;;;;5095733;28;20569;-87
2022/10/24 10:58:23;;;;;;;4.60;2.33;;;18.40;99.90;;;;;;5094334;28;20489;-89
2022/10/24 11:00:59;;;;;;;7.07;2.87;;;18.40;99.90;;;;;;5096819;28;20427;-88
2022/10/24 11:03:37;;;;;;;4.47;2.10;;;18.40;99.90;;;;;;5113080;28;20403;-87
2022/10/24 11:06:20;;;;;;;5.37;2.57;;;18.20;99.90;;;;;;5112072;28;20516;-89
2022/10/24 11:09:03;;;;;;;4.83;2.03;;;18.20;99.90;;;;;;5133529;22;20492;-87
2022/10/24 11:11:32;;;;;;;3.60;1.73;;;18.20;99.90;;;;;;5116125;28;20428;-85
2022/10/24 11:14:07;;;;;;;5.77;1.77;;;18.10;99.90;;;;;;5134575;27;20529;-85
2022/10/24 11:16:37;;;;;;;8.40;2.67;;;18.20;99.90;;;;;;5116564;28;20448;-84
2022/10/24 11:19:11;;;;;;;5.23;2.10;;;18.10;99.90;;;;;;5115553;28;20477;-84
2022/10/24 11:21:40;;;;;;;2.50;1.80;;;18.10;99.90;;;;;;5105746;28;20445;-85
2022/10/24 11:24:14;;;;;;;5.73;1.73;;;18.10;99.90;;;;;;5107217;28;20423;-84
2022/10/24 11:26:48;;;;;;;2.90;1.33;;;18.10;99.90;;;;;;5116067;28;20446;-84
2022/10/24 11:29:23;;;;;;;3.33;1.90;;;18.10;99.90;;;;;;5108541;28;20457;-85
2022/10/24 11:31:56;;;;;;;2.80;1.40;;;18.10;99.90;;;;;;5098473;28;20451;-86
2022/10/24 11:34:31;;;;;;;3.00;1.70;;;18.10;99.90;;;;;;5098899;28;20443;-86
2022/10/24 11:37:01;;;;;;;5.20;1.60;;;18.20;99.90;;;;;;5101608;28;20442;-85
2022/10/24 11:39:35;;;;;;;5.20;2.80;;;18.20;99.90;;;;;;5117291;28;20487;-85
2022/10/24 11:42:07;;;;;;;5.90;1.60;;;18.20;99.90;;;;;;5123791;28;20822;-85
2022/10/24 11:44:40;;;;;;;8.70;1.70;;;18.20;99.90;;;;;;5125460;28;20429;-85
2022/10/24 11:47:44;;;;;;;4.50;2.13;;;18.20;99.90;;;;;;5125219;28;20858;-85
2022/10/24 11:50:27;;;;;;;4.50;1.80;;;18.20;99.90;;;;;;5110634;28;20454;-90
2022/10/24 11:52:58;;;;;;;5.13;2.90;;;18.30;99.90;;;;;;5124435;28;20446;-84
2022/10/24 11:55:30;;;;;;;3.90;2.00;;;18.30;99.90;;;;;;5125158;28;20449;-81
2022/10/24 11:57:59;;;;;;;3.00;2.00;;;18.30;99.90;;;;;;5124633;28;20468;-82
2022/10/24 12:00:30;;;;;;;3.17;2.03;;;18.30;99.90;;;;;;5125476;28;20848;-82
2022/10/24 12:03:33;;;;;;;3.90;1.70;;;18.30;99.90;;;;;;5127360;28;20442;-84
2022/10/24 12:06:16;;;;;;;4.23;1.60;;;18.30;99.90;;;;;;5123318;28;20446;-85
2022/10/24 12:09:11;;;;;;;8.27;2.37;;;18.30;99.90;;;;;;5120525;28;20468;-84
2022/10/24 12:12:02;;;;;;;4.67;2.30;;;18.40;99.90;;;;;;5118504;28;20450;-85
2022/10/24 12:14:49;;;;;;;3.47;1.53;;;18.50;99.90;;;;;;5133107;27;20428;-84
2022/10/24 12:17:45;;;;;;;4.30;1.70;;;18.50;99.90;;;;;;5138875;27;20438;-84
2022/10/24 12:20:15;;;;;;;7.47;2.27;;;18.60;99.90;;;;;;5129178;28;20477;-85
2022/10/24 12:22:44;;;;;;;5.20;1.60;;;18.70;99.90;;;;;;5124339;28;20438;-86
2022/10/24 12:25:20;;;;;;;6.10;1.47;;;18.70;99.90;;;;;;5124836;28;20446;-86
2022/10/24 12:27:54;;;;;;;6.00;1.97;;;18.60;99.90;;;;;;5131092;28;20848;-85
2022/10/24 12:30:24;;;;;;;3.07;1.80;;;18.60;99.90;;;;;;5133187;28;20428;-85
2022/10/24 12:32:54;;;;;;;5.50;1.50;;;18.50;99.90;;;;;;5114379;28;20442;-84
2022/10/24 12:35:47;;;;;;;2.83;1.13;;;18.50;99.90;;;;;;5117737;28;20504;-84
2022/10/24 12:38:17;;;;;;;2.70;1.40;;;18.50;99.90;;;;;;5112965;28;20454;-84
2022/10/24 12:40:54;;;;;;;2.73;1.67;;;18.50;99.90;;;;;;5108934;28;20447;-84
2022/10/24 12:43:31;;;;;;;4.70;1.27;;;18.50;99.90;;;;;;5107160;28;20522;-84
2022/10/24 12:46:00;;;;;;;3.97;1.40;;;18.60;99.90;;;;;;5110333;28;21076;-84
2022/10/24 12:48:37;;;;;;;3.20;1.80;;;18.60;99.90;;;;;;5115573;28;20450;-84
2022/10/24 12:51:26;;;;;;;3.83;1.67;;;18.60;99.90;;;;;;5108111;28;20438;-85
2022/10/24 12:54:17;;;;;;;3.13;1.57;;;18.60;99.90;;;;;;5120153;28;20438;-84
2022/10/24 12:57:22;;;;;;;3.57;0.90;;;18.60;99.90;;;;;;5119394;28;20442;-84
2022/10/24 12:59:52;;;;;;;2.27;1.40;;;18.70;99.90;;;;;;5126993;27;20457;-84
2022/10/24 13:02:39;;;;;;;2.83;1.50;;;18.70;99.90;;;;;;5115688;28;20449;-85
2022/10/24 13:05:17;;;;;;;2.23;1.63;;;18.80;99.90;;;;;;5105864;28;20447;-85